Time;durP1;ratioP1;P1;durP2;ratioP2;P2;SDS_P1;SDS_P2;PMS_P1;PMS_P2;Temp;Humidity;BMP_temperature;BMP_pressure;BME280_temperature;BME280_humidity;BME280_pressure;Samples;Min_cycle;Max_cycle;Signal;HPM_P1;HPM_P2
2023/05/23 00:01:20;;;;;;;;;;;;;;;;;;5063571;28;19919;-82
2023/05/23 00:03:46;;;;;;;;;;;;;;;;;;5039762;28;19921;-82
2023/05/23 00:06:14;;;;;;;;;;;;;;;;;;5068487;28;19995;-81
2023/05/23 00:08:42;;;;;;;;;;;;;;;;;;5063083;28;20003;-81
2023/05/23 00:11:09;;;;;;;;;;;;;;;;;;5042251;28;20369;-82
2023/05/23 00:13:35;;;;;;;;;;;;;;;;;;5068443;28;19939;-82
2023/05/23 00:16:01;;;;;;;;;;;;;;;;;;5057652;28;19912;-82
2023/05/23 00:18:29;;;;;;;;;;;;;;;;;;5064635;28;19912;-82
2023/05/23 00:20:56;;;;;;;;;;;;;;;;;;5065830;28;19927;-82
2023/05/23 00:23:24;;;;;;;;;;;;;;;;;;5059229;28;19913;-81
2023/05/23 00:25:51;;;;;;;;;;;;;;;;;;5060237;28;19912;-82
2023/05/23 00:28:17;;;;;;;;;;;;;;;;;;5068027;28;19920;-82
2023/05/23 00:30:42;;;;;;;;;;;;;;;;;;5065192;28;19917;-82
2023/05/23 00:33:07;;;;;;;;;;;;;;;;;;5060696;28;20335;-82
2023/05/23 00:35:33;;;;;;;;;;;;;;;;;;5072613;28;19913;-82
2023/05/23 00:37:58;;;;;;;;;;;;;;;;;;5059664;28;19912;-81
2023/05/23 00:40:24;;;;;;;;;;;;;;;;;;5070280;28;19913;-83
2023/05/23 00:42:50;;;;;;;;;;;;;;;;;;5052278;28;20299;-82
2023/05/23 00:45:16;;;;;;;;;;;;;;;;;;5065148;28;19913;-81
2023/05/23 00:47:41;;;;;;;;;;;;;;;;;;5071267;28;19919;-82
2023/05/23 00:50:13;;;;;;;;;;;;;;;;;;5060336;28;19913;-82
2023/05/23 00:52:38;;;;;;;;;;;;;;;;;;5063704;28;20280;-81
2023/05/23 00:55:04;;;;;;;;;;;;;;;;;;5064977;28;19913;-82
2023/05/23 00:57:29;;;;;;;;;;;;;;;;;;5066830;28;19912;-82
2023/05/23 00:59:55;;;;;;;;;;;;;;;;;;5055604;28;19916;-82
2023/05/23 01:02:20;;;;;;;;;;;;;;;;;;5064835;28;20280;-83
2023/05/23 01:04:45;;;;;;;;;;;;;;;;;;5063845;28;19925;-82
2023/05/23 01:07:11;;;;;;;;;;;;;;;;;;5057900;28;19913;-81
2023/05/23 01:09:36;;;;;;;;;;;;;;;;;;5050274;28;19913;-82
2023/05/23 01:12:01;;;;;;;;;;;;;;;;;;5067618;28;19917;-81
2023/05/23 01:14:27;;;;;;;;;;;;;;;;;;5035464;28;19920;-81
2023/05/23 01:16:52;;;;;;;;;;;;;;;;;;5063530;28;19954;-82
2023/05/23 01:19:21;;;;;;;;;;;;;;;;;;5057818;28;19913;-81
2023/05/23 01:21:51;;;;;;;;;;;;;;;;;;5069179;28;19919;-81
2023/05/23 01:24:17;;;;;;;;;;;;;;;;;;5059857;28;19913;-82
2023/05/23 01:26:44;;;;;;;;;;;;;;;;;;5062403;28;19913;-81
2023/05/23 01:29:13;;;;;;;;;;;;;;;;;;5065980;28;19999;-82
2023/05/23 01:31:38;;;;;;;;;;;;;;;;;;5067536;28;20410;-82
2023/05/23 01:34:03;;;;;;;;;;;;;;;;;;5056726;28;20030;-83
2023/05/23 01:36:30;;;;;;;;;;;;;;;;;;5064397;28;19932;-82
2023/05/23 01:38:56;;;;;;;;;;;;;;;;;;5064761;28;19946;-83
2023/05/23 01:41:22;;;;;;;;;;;;;;;;;;5055610;28;19967;-83
2023/05/23 01:43:47;;;;;;;;;;;;;;;;;;5069764;28;19913;-82
2023/05/23 01:46:12;;;;;;;;;;;;;;;;;;5059915;28;19923;-83
2023/05/23 01:48:38;;;;;;;;;;;;;;;;;;5068077;28;20334;-82
2023/05/23 01:51:03;;;;;;;;;;;;;;;;;;5072487;28;19917;-83
2023/05/23 01:53:29;;;;;;;;;;;;;;;;;;5080179;28;19920;-83
2023/05/23 01:55:57;;;;;;;;;;;;;;;;;;5055817;28;19916;-83
2023/05/23 01:58:22;;;;;;;;;;;;;;;;;;5061842;28;20333;-83
2023/05/23 02:00:48;;;;;;;;;;;;;;;;;;5062445;28;20260;-82
2023/05/23 02:03:13;;;;;;;;;;;;;;;;;;5052418;28;20279;-82
2023/05/23 02:05:39;;;;;;;;;;;;;;;;;;5064400;28;19913;-82
2023/05/23 02:08:05;;;;;;;;;;;;;;;;;;5084021;28;20419;-83
2023/05/23 02:10:30;;;;;;;;;;;;;;;;;;5066215;28;19906;-82
2023/05/23 02:12:58;;;;;;;;;;;;;;;;;;5077535;28;19976;-81
2023/05/23 02:15:24;;;;;;;;;;;;;;;;;;5059064;28;19901;-82
2023/05/23 02:17:50;;;;;;;;;;;;;;;;;;5089035;28;19987;-81
2023/05/23 02:20:17;;;;;;;;;;;;;;;;;;5079741;28;19924;-83
2023/05/23 02:22:43;;;;;;;;;;;;;;;;;;5046378;28;19916;-82
2023/05/23 02:25:08;;;;;;;;;;;;;;;;;;5086250;28;19916;-80
2023/05/23 02:27:33;;;;;;;;;;;;;;;;;;5070158;28;20064;-83
2023/05/23 02:29:59;;;;;;;;;;;;;;;;;;5086015;28;19917;-80
2023/05/23 02:32:24;;;;;;;;;;;;;;;;;;5064957;28;19920;-81
2023/05/23 02:34:50;;;;;;;;;;;;;;;;;;5062398;28;19920;-82
2023/05/23 02:37:15;;;;;;;;;;;;;;;;;;5053031;28;19990;-81
2023/05/23 02:39:41;;;;;;;;;;;;;;;;;;5068135;28;19913;-82
2023/05/23 02:42:06;;;;;;;;;;;;;;;;;;5057097;28;19914;-81
2023/05/23 02:44:32;;;;;;;;;;;;;;;;;;5062685;28;19995;-81
2023/05/23 02:46:57;;;;;;;;;;;;;;;;;;5039174;28;19947;-81
2023/05/23 02:49:23;;;;;;;;;;;;;;;;;;5055708;28;19968;-81
2023/05/23 02:51:49;;;;;;;;;;;;;;;;;;5054576;28;20008;-81
2023/05/23 02:54:15;;;;;;;;;;;;;;;;;;5064549;28;19975;-81
2023/05/23 02:56:41;;;;;;;;;;;;;;;;;;5044032;28;19920;-82
2023/05/23 02:59:11;;;;;;;;;;;;;;;;;;5065065;28;19916;-83
2023/05/23 03:01:36;;;;;;;;;;;;;;;;;;5053621;28;19920;-81
2023/05/23 03:04:02;;;;;;;;;;;;;;;;;;5055404;28;20379;-82
2023/05/23 03:06:27;;;;;;;;;;;;;;;;;;5062724;28;20112;-82
2023/05/23 03:08:53;;;;;;;;;;;;;;;;;;5038152;28;20439;-82
2023/05/23 03:11:18;;;;;;;;;;;;;;;;;;5038463;28;19943;-82
2023/05/23 03:13:44;;;;;;;;;;;;;;;;;;5067169;28;19912;-81
2023/05/23 03:16:11;;;;;;;;;;;;;;;;;;5056316;28;20383;-82
2023/05/23 03:18:36;;;;;;;;;;;;;;;;;;5062194;28;20012;-82
2023/05/23 03:21:02;;;;;;;;;;;;;;;;;;5063182;28;20411;-82
2023/05/23 03:23:36;;;;;;;;;;;;;;;;;;5054081;28;19912;-81
2023/05/23 03:26:02;;;;;;;;;;;;;;;;;;5049225;28;19947;-82
2023/05/23 03:28:28;;;;;;;;;;;;;;;;;;5058970;28;19917;-82
2023/05/23 03:30:53;;;;;;;;;;;;;;;;;;5049673;28;19923;-82
2023/05/23 03:33:19;;;;;;;;;;;;;;;;;;5039088;28;19917;-82
2023/05/23 03:35:45;;;;;;;;;;;;;;;;;;5070322;28;20410;-82
2023/05/23 03:38:10;;;;;;;;;;;;;;;;;;5059793;28;19913;-82
2023/05/23 03:40:35;;;;;;;;;;;;;;;;;;5064118;28;20003;-83
2023/05/23 03:43:01;;;;;;;;;;;;;;;;;;5066637;28;20286;-81
2023/05/23 03:45:27;;;;;;;;;;;;;;;;;;5057388;28;19917;-81
2023/05/23 03:47:52;;;;;;;;;;;;;;;;;;5071388;28;19919;-82
2023/05/23 03:50:18;;;;;;;;;;;;;;;;;;5043536;28;20295;-81
2023/05/23 03:52:43;;;;;;;;;;;;;;;;;;5063040;28;19913;-82
2023/05/23 03:55:10;;;;;;;;;;;;;;;;;;5067033;28;20395;-82
2023/05/23 03:57:35;;;;;;;;;;;;;;;;;;5058185;28;19913;-82
2023/05/23 04:00:00;;;;;;;;;;;;;;;;;;5062358;28;20329;-82
2023/05/23 04:02:26;;;;;;;;;;;;;;;;;;5074002;28;20291;-82
2023/05/23 04:04:52;;;;;;;;;;;;;;;;;;5063194;28;19913;-81
2023/05/23 04:07:18;;;;;;;;;;;;;;;;;;5057219;28;19913;-81
2023/05/23 04:09:43;;;;;;;;;;;;;;;;;;5058074;28;19913;-83
2023/05/23 04:12:10;;;;;;;;;;;;;;;;;;5035700;28;19916;-81
2023/05/23 04:14:38;;;;;;;;;;;;;;;;;;5053708;28;19912;-82
2023/05/23 04:17:03;;;;;;;;;;;;;;;;;;5071731;28;19913;-82
2023/05/23 04:19:29;;;;;;;;;;;;;;;;;;5074893;28;20351;-81
2023/05/23 04:21:54;;;;;;;;;;;;;;;;;;5057348;28;20395;-81
2023/05/23 04:24:19;;;;;;;;;;;;;;;;;;5068886;28;20008;-82
2023/05/23 04:26:45;;;;;;;;;;;;;;;;;;5068026;28;19916;-81
2023/05/23 04:29:11;;;;;;;;;;;;;;;;;;5045283;28;19920;-82
2023/05/23 04:31:36;;;;;;;;;;;;;;;;;;5074066;28;20367;-83
2023/05/23 04:34:02;;;;;;;;;;;;;;;;;;5073057;28;20339;-83
2023/05/23 04:36:29;;;;;;;;;;;;;;;;;;5062936;28;20007;-83
2023/05/23 04:38:54;;;;;;;;;;;;;;;;;;5062661;28;20061;-81
2023/05/23 04:41:22;;;;;;;;;;;;;;;;;;5068664;28;19913;-82
2023/05/23 04:44:13;;;;;;;;;;;;;;;;;;5051214;28;19921;-82
2023/05/23 04:46:49;;;;;;;;;;;;;;;;;;5065597;28;19913;-82
2023/05/23 04:49:24;;;;;;;;;;;;;;;;;;5057468;28;19924;-82
2023/05/23 04:51:50;;;;;;;;;;;;;;;;;;5073107;28;19916;-81
2023/05/23 04:54:39;;;;;;;;;;;;;;;;;;5069058;28;20379;-84
2023/05/23 04:57:05;;;;;;;;;;;;;;;;;;5050417;28;19935;-82
2023/05/23 04:59:30;;;;;;;;;;;;;;;;;;5045927;28;20359;-80
2023/05/23 05:01:56;;;;;;;;;;;;;;;;;;5064956;28;20260;-81
2023/05/23 05:04:22;;;;;;;;;;;;;;;;;;5059808;28;19913;-82
2023/05/23 05:06:47;;;;;;;;;;;;;;;;;;5067948;28;19923;-82
2023/05/23 05:09:13;;;;;;;;;;;;;;;;;;5072361;28;19912;-81
2023/05/23 05:11:40;;;;;;;;;;;;;;;;;;5035707;28;19976;-81
2023/05/23 05:14:06;;;;;;;;;;;;;;;;;;5056450;28;19911;-84
2023/05/23 05:16:33;;;;;;;;;;;;;;;;;;5081394;28;19976;-81
2023/05/23 05:18:59;;;;;;;;;;;;;;;;;;5081484;28;19931;-82
2023/05/23 05:21:24;;;;;;;;;;;;;;;;;;5080799;28;19919;-81
2023/05/23 05:23:51;;;;;;;;;;;;;;;;;;5052307;28;19970;-82
2023/05/23 05:26:16;;;;;;;;;;;;;;;;;;5073718;28;20383;-82
2023/05/23 05:28:41;;;;;;;;;;;;;;;;;;5053963;28;19912;-83
2023/05/23 05:31:07;;;;;;;;;;;;;;;;;;5070729;28;20283;-83
2023/05/23 05:33:34;;;;;;;;;;;;;;;;;;5055597;28;20352;-83
2023/05/23 05:36:07;;;;;;;;;;;;;;;;;;5058170;28;20307;-82
2023/05/23 05:38:35;;;;;;;;;;;;;;;;;;5056388;28;19916;-82
2023/05/23 05:41:01;;;;;;;;;;;;;;;;;;5060826;28;20283;-82
2023/05/23 05:43:31;;;;;;;;;;;;;;;;;;5053702;28;19924;-82
2023/05/23 05:45:57;;;;;;;;;;;;;;;;;;5069085;28;19913;-82
2023/05/23 05:48:22;;;;;;;;;;;;;;;;;;5058691;28;19995;-82
2023/05/23 05:50:49;;;;;;;;;;;;;;;;;;5060449;28;19928;-80
2023/05/23 05:53:15;;;;;;;;;;;;;;;;;;5055123;28;20098;-82
2023/05/23 05:55:40;;;;;;;;;;;;;;;;;;5056525;28;19913;-82
2023/05/23 05:58:06;;;;;;;;;;;;;;;;;;5048861;28;19952;-81
2023/05/23 06:00:45;;;;;;;;;;;;;;;;;;5028955;28;19924;-82
2023/05/23 06:03:11;;;;;;;;;;;;;;;;;;5061106;28;19912;-83
2023/05/23 06:05:44;;;;;;;;;;;;;;;;;;5038137;28;19916;-82
2023/05/23 06:08:10;;;;;;;;;;;;;;;;;;5065347;28;19932;-82
2023/05/23 06:10:35;;;;;;;;;;;;;;;;;;5055010;28;20012;-82
2023/05/23 06:13:01;;;;;;;;;;;;;;;;;;5057911;28;20348;-82
2023/05/23 06:15:29;;;;;;;;;;;;;;;;;;5054439;28;19936;-82
2023/05/23 06:17:54;;;;;;;;;;;;;;;;;;5067032;28;20387;-82
2023/05/23 06:20:20;;;;;;;;;;;;;;;;;;5041409;28;19954;-81
2023/05/23 06:22:46;;;;;;;;;;;;;;;;;;5027385;28;20007;-82
2023/05/23 06:25:11;;;;;;;;;;;;;;;;;;5048630;28;20272;-81
2023/05/23 06:27:37;;;;;;;;;;;;;;;;;;5054243;28;19936;-82
2023/05/23 06:30:02;;;;;;;;;;;;;;;;;;5066156;28;20354;-81
2023/05/23 06:32:28;;;;;;;;;;;;;;;;;;5060018;28;20308;-82
2023/05/23 06:34:53;;;;;;;;;;;;;;;;;;5026372;28;19961;-81
2023/05/23 06:37:18;;;;;;;;;;;;;;;;;;5066162;28;19920;-81
2023/05/23 06:39:44;;;;;;;;;;;;;;;;;;5054370;28;19912;-81
2023/05/23 06:42:09;;;;;;;;;;;;;;;;;;5049629;28;20018;-82
2023/05/23 06:44:52;;;;;;;;;;;;;;;;;;5062821;28;20055;-81
2023/05/23 06:47:18;;;;;;;;;;;;;;;;;;5039374;28;19999;-82
2023/05/23 06:49:44;;;;;;;;;;;;;;;;;;5050569;28;19908;-86
2023/05/23 06:52:10;;;;;;;;;;;;;;;;;;5056935;28;19924;-85
2023/05/23 06:54:35;;;;;;;;;;;;;;;;;;5063805;28;19992;-88
2023/05/23 06:57:01;;;;;;;;;;;;;;;;;;5038519;28;20375;-87
2023/05/23 06:59:26;;;;;;;;;;;;;;;;;;5033251;28;19913;-89
2023/05/23 07:01:55;;;;;;;;;;;;;;;;;;5056371;28;19938;-88
2023/05/23 07:04:21;;;;;;;;;;;;;;;;;;5033293;28;20257;-89
2023/05/23 07:06:46;;;;;;;;;;;;;;;;;;5047390;28;19961;-88
2023/05/23 07:09:12;;;;;;;;;;;;;;;;;;5045181;28;19917;-89
2023/05/23 07:11:39;;;;;;;;;;;;;;;;;;5050893;28;20425;-90
2023/05/23 07:14:06;;;;;;;;;;;;;;;;;;5047221;28;19923;-86
2023/05/23 07:16:40;;;;;;;;;;;;;;;;;;5033427;28;20398;-84
2023/05/23 07:19:09;;;;;;;;;;;;;;;;;;5068472;28;19912;-85
2023/05/23 07:21:41;;;;;;;;;;;;;;;;;;5057778;28;20666;-85
2023/05/23 07:24:07;;;;;;;;;;;;;;;;;;5052652;28;20003;-86
2023/05/23 07:26:32;;;;;;;;;;;;;;;;;;5037946;28;19912;-86
2023/05/23 07:29:00;;;;;;;;;;;;;;;;;;5067861;28;19952;-85
2023/05/23 07:31:26;;;;;;;;;;;;;;;;;;5044214;28;19920;-85
2023/05/23 07:33:54;;;;;;;;;;;;;;;;;;5072766;28;20384;-85
2023/05/23 07:36:26;;;;;;;;;;;;;;;;;;5056373;28;20438;-83
2023/05/23 07:38:52;;;;;;;;;;;;;;;;;;5068201;28;19916;-83
2023/05/23 07:41:17;;;;;;;;;;;;;;;;;;5075448;28;20268;-86
2023/05/23 07:43:46;;;;;;;;;;;;;;;;;;5046176;28;19912;-80
2023/05/23 07:46:14;;;;;;;;;;;;;;;;;;5069596;28;19912;-82
2023/05/23 07:48:40;;;;;;;;;;;;;;;;;;5041991;28;20363;-83
2023/05/23 07:51:05;;;;;;;;;;;;;;;;;;5047350;28;20023;-83
2023/05/23 07:53:38;;;;;;;;;;;;;;;;;;5076836;28;19913;-83
2023/05/23 07:56:10;;;;;;;;;;;;;;;;;;5072442;28;19999;-81
2023/05/23 07:58:37;;;;;;;;;;;;;;;;;;5064867;28;19938;-83
2023/05/23 08:01:03;;;;;;;;;;;;;;;;;;5105811;27;19920;-83
2023/05/23 08:03:48;;;;;;;;;;;;;;;;;;5092046;28;19925;-84
2023/05/23 08:06:20;;;;;;;;;;;;;;;;;;5065435;28;19913;-83
2023/05/23 08:08:45;;;;;;;;;;;;;;;;;;5081257;28;19971;-84
2023/05/23 08:11:11;;;;;;;;;;;;;;;;;;5075865;28;19960;-84
2023/05/23 08:13:42;;;;;;;;;;;;;;;;;;5076318;28;19999;-85
2023/05/23 08:16:41;;;;;;;;;;;;;;;;;;5057796;28;20394;-89
2023/05/23 08:19:12;;;;;;;;;;;;;;;;;;5040754;28;19917;-89
2023/05/23 08:21:38;;;;;;;;;;;;;;;;;;5034423;28;19958;-88
2023/05/23 08:24:05;;;;;;;;;;;;;;;;;;5033741;28;19919;-88
2023/05/23 08:26:33;;;;;;;;;;;;;;;;;;5059654;28;19960;-86
2023/05/23 08:29:03;;;;;;;;;;;;;;;;;;5049836;28;19913;-85
2023/05/23 08:31:30;;;;;;;;;;;;;;;;;;5063081;28;20368;-86
2023/05/23 08:33:55;;;;;;;;;;;;;;;;;;5062929;28;19940;-83
2023/05/23 08:36:21;;;;;;;;;;;;;;;;;;5050308;28;19935;-84
2023/05/23 08:38:49;;;;;;;;;;;;;;;;;;5065907;28;20018;-82
2023/05/23 08:41:21;;;;;;;;;;;;;;;;;;5088057;28;20417;-83
2023/05/23 08:43:48;;;;;;;;;;;;;;;;;;5056530;28;19912;-84
2023/05/23 08:46:20;;;;;;;;;;;;;;;;;;5045692;28;19920;-88
2023/05/23 08:48:45;;;;;;;;;;;;;;;;;;5063982;28;20491;-86
2023/05/23 08:51:11;;;;;;;;;;;;;;;;;;5066785;28;20375;-84
2023/05/23 08:53:37;;;;;;;;;;;;;;;;;;5055979;28;20405;-84
2023/05/23 08:56:05;;;;;;;;;;;;;;;;;;5052462;28;19912;-82
2023/05/23 08:58:40;;;;;;;;;;;;;;;;;;5072659;28;19912;-81
2023/05/23 09:01:07;;;;;;;;;;;;;;;;;;5058481;28;19923;-83
2023/05/23 09:03:32;;;;;;;;;;;;;;;;;;5059633;28;20050;-83
2023/05/23 09:06:18;;;;;;;;;;;;;;;;;;5060097;28;19967;-81
2023/05/23 09:08:45;;;;;;;;;;;;;;;;;;5063210;28;19967;-83
2023/05/23 09:11:12;;;;;;;;;;;;;;;;;;5057119;28;19924;-82
2023/05/23 09:13:39;;;;;;;;;;;;;;;;;;5069745;28;20007;-83
2023/05/23 09:16:06;;;;;;;;;;;;;;;;;;5057146;28;19916;-82
2023/05/23 09:18:39;;;;;;;;;;;;;;;;;;5061860;28;20375;-82
2023/05/23 09:21:05;;;;;;;;;;;;;;;;;;5065099;28;19913;-83
2023/05/23 09:23:32;;;;;;;;;;;;;;;;;;5055358;28;20429;-83
2023/05/23 09:25:57;;;;;;;;;;;;;;;;;;5067818;28;19917;-82
2023/05/23 09:28:23;;;;;;;;;;;;;;;;;;5042474;28;19947;-83
2023/05/23 09:30:48;;;;;;;;;;;;;;;;;;5060290;28;19916;-83
2023/05/23 09:33:20;;;;;;;;;;;;;;;;;;5065831;28;20379;-81
2023/05/23 09:35:45;;;;;;;;;;;;;;;;;;5037177;28;19975;-80
2023/05/23 09:38:13;;;;;;;;;;;;;;;;;;5055402;28;19913;-81
2023/05/23 09:40:39;;;;;;;;;;;;;;;;;;5044456;28;19913;-81
2023/05/23 09:43:06;;;;;;;;;;;;;;;;;;5065902;28;19919;-80
2023/05/23 09:45:31;;;;;;;;;;;;;;;;;;5055216;28;19939;-80
2023/05/23 09:47:58;;;;;;;;;;;;;;;;;;5070776;28;19913;-82
2023/05/23 09:50:24;;;;;;;;;;;;;;;;;;5062988;28;19923;-82
2023/05/23 09:52:50;;;;;;;;;;;;;;;;;;5066185;28;19917;-82
2023/05/23 09:55:15;;;;;;;;;;;;;;;;;;5074759;28;19923;-81
2023/05/23 09:57:44;;;;;;;;;;;;;;;;;;5071224;28;19919;-81
2023/05/23 10:00:10;;;;;;;;;;;;;;;;;;5059686;28;19912;-82
2023/05/23 10:02:38;;;;;;;;;;;;;;;;;;5062051;28;19917;-81
2023/05/23 10:05:03;;;;;;;;;;;;;;;;;;5065734;28;20323;-80
2023/05/23 10:07:28;;;;;;;;;;;;;;;;;;5055953;28;20007;-81
2023/05/23 10:09:54;;;;;;;;;;;;;;;;;;5067449;28;19916;-81
2023/05/23 10:12:19;;;;;;;;;;;;;;;;;;5049686;28;20366;-82
2023/05/23 10:14:45;;;;;;;;;;;;;;;;;;5071942;28;19988;-80
2023/05/23 10:17:10;;;;;;;;;;;;;;;;;;5082461;28;19920;-80
2023/05/23 10:19:36;;;;;;;;;;;;;;;;;;5058083;28;20311;-81
2023/05/23 10:22:01;;;;;;;;;;;;;;;;;;5049731;28;19913;-81
2023/05/23 10:24:30;;;;;;;;;;;;;;;;;;5059623;28;19924;-81
2023/05/23 10:26:55;;;;;;;;;;;;;;;;;;5062279;28;19916;-81
2023/05/23 10:29:21;;;;;;;;;;;;;;;;;;5067591;28;19908;-80
2023/05/23 10:31:46;;;;;;;;;;;;;;;;;;5053887;28;19917;-80
2023/05/23 10:34:11;;;;;;;;;;;;;;;;;;5068560;28;19913;-80
2023/05/23 10:36:37;;;;;;;;;;;;;;;;;;5057882;28;19912;-87
2023/05/23 10:39:03;;;;;;;;;;;;;;;;;;5068385;28;19909;-84
2023/05/23 10:41:28;;;;;;;;;;;;;;;;;;5066744;28;19958;-84
2023/05/23 10:43:53;;;;;;;;;;;;;;;;;;5077421;28;19920;-85
2023/05/23 10:46:20;;;;;;;;;;;;;;;;;;5090819;28;19901;-85
2023/05/23 10:48:45;;;;;;;;;;;;;;;;;;5081650;28;19943;-84
2023/05/23 10:51:11;;;;;;;;;;;;;;;;;;5091362;28;19980;-84
2023/05/23 10:53:36;;;;;;;;;;;;;;;;;;5084384;28;19981;-85
2023/05/23 10:56:02;;;;;;;;;;;;;;;;;;5080420;28;19917;-85
2023/05/23 10:58:27;;;;;;;;;;;;;;;;;;5080966;28;20337;-85
2023/05/23 11:00:53;;;;;;;;;;;;;;;;;;5066001;28;20434;-84
2023/05/23 11:03:18;;;;;;;;;;;;;;;;;;5076460;28;19913;-86
2023/05/23 11:05:44;;;;;;;;;;;;;;;;;;5064333;28;20002;-84
2023/05/23 11:08:09;;;;;;;;;;;;;;;;;;5071566;28;20046;-86
2023/05/23 11:10:35;;;;;;;;;;;;;;;;;;5043542;28;19913;-87
2023/05/23 11:13:00;;;;;;;;;;;;;;;;;;5049220;28;19923;-84
2023/05/23 11:15:25;;;;;;;;;;;;;;;;;;5075368;28;19916;-84
2023/05/23 11:17:51;;;;;;;;;;;;;;;;;;5064213;28;19916;-87
2023/05/23 11:20:21;;;;;;;;;;;;;;;;;;5071198;28;19917;-86
2023/05/23 11:22:47;;;;;;;;;;;;;;;;;;5059275;28;19979;-85
2023/05/23 11:25:15;;;;;;;;;;;;;;;;;;5071211;28;19932;-85
2023/05/23 11:27:41;;;;;;;;;;;;;;;;;;5067086;28;19913;-87
2023/05/23 11:30:06;;;;;;;;;;;;;;;;;;5059769;28;19958;-85
2023/05/23 11:32:32;;;;;;;;;;;;;;;;;;5055967;28;20399;-84
2023/05/23 11:34:57;;;;;;;;;;;;;;;;;;5070564;28;19919;-85
2023/05/23 11:37:23;;;;;;;;;;;;;;;;;;5063551;28;19959;-82
2023/05/23 11:39:48;;;;;;;;;;;;;;;;;;5067590;28;20438;-82
2023/05/23 11:42:14;;;;;;;;;;;;;;;;;;5050271;28;20273;-82
2023/05/23 11:44:39;;;;;;;;;;;;;;;;;;5045713;28;19953;-82
2023/05/23 11:47:05;;;;;;;;;;;;;;;;;;5058395;28;19923;-83
2023/05/23 11:49:30;;;;;;;;;;;;;;;;;;5035639;28;20391;-82
2023/05/23 11:51:56;;;;;;;;;;;;;;;;;;5062483;28;20410;-86
2023/05/23 11:54:21;;;;;;;;;;;;;;;;;;5070217;28;19917;-87
2023/05/23 11:56:47;;;;;;;;;;;;;;;;;;5058977;28;20206;-88
2023/05/23 11:59:12;;;;;;;;;;;;;;;;;;5051244;28;20391;-86
2023/05/23 12:01:37;;;;;;;;;;;;;;;;;;5064362;28;19913;-87
2023/05/23 12:04:03;;;;;;;;;;;;;;;;;;5062760;28;19913;-87
2023/05/23 12:06:31;;;;;;;;;;;;;;;;;;5072464;28;19952;-89
2023/05/23 12:08:59;;;;;;;;;;;;;;;;;;5040974;28;19918;-89
2023/05/23 12:11:25;;;;;;;;;;;;;;;;;;5039751;28;19917;-90
2023/05/23 12:13:53;;;;;;;;;;;;;;;;;;5054274;28;19927;-89
2023/05/23 12:16:28;;;;;;;;;;;;;;;;;;5070616;28;19912;-88
2023/05/23 12:18:55;;;;;;;;;;;;;;;;;;5049178;28;19920;-87
2023/05/23 12:21:23;;;;;;;;;;;;;;;;;;5060261;28;19920;-88
2023/05/23 12:23:56;;;;;;;;;;;;;;;;;;5093007;28;19912;-86
2023/05/23 12:26:22;;;;;;;;;;;;;;;;;;5024558;28;19979;-84
2023/05/23 12:28:47;;;;;;;;;;;;;;;;;;5061770;28;19939;-82
2023/05/23 12:31:13;;;;;;;;;;;;;;;;;;5060913;28;19924;-83
2023/05/23 12:33:39;;;;;;;;;;;;;;;;;;5060915;22;19925;-83
2023/05/23 12:36:05;;;;;;;;;;;;;;;;;;5023480;28;19920;-83
2023/05/23 12:38:36;;;;;;;;;;;;;;;;;;5004872;28;20001;-85
2023/05/23 12:41:02;;;;;;;;;;;;;;;;;;5018589;28;19913;-85
2023/05/23 12:43:27;;;;;;;;;;;;;;;;;;5050245;28;20335;-84
2023/05/23 12:45:52;;;;;;;;;;;;;;;;;;5033472;28;19920;-85
2023/05/23 12:48:18;;;;;;;;;;;;;;;;;;5034454;28;20335;-87
2023/05/23 12:50:46;;;;;;;;;;;;;;;;;;5017546;28;19914;-85
2023/05/23 12:53:11;;;;;;;;;;;;;;;;;;5033843;28;19921;-85
2023/05/23 12:55:36;;;;;;;;;;;;;;;;;;5033576;28;20003;-85
2023/05/23 12:58:05;;;;;;;;;;;;;;;;;;5034184;28;19913;-85
2023/05/23 13:00:33;;;;;;;;;;;;;;;;;;5013348;28;20273;-83
2023/05/23 13:02:59;;;;;;;;;;;;;;;;;;5010410;28;20005;-82
2023/05/23 13:05:26;;;;;;;;;;;;;;;;;;5041869;28;19945;-85
2023/05/23 13:07:52;;;;;;;;;;;;;;;;;;5023343;28;19947;-85
2023/05/23 13:10:18;;;;;;;;;;;;;;;;;;5019985;28;20008;-87
2023/05/23 13:12:43;;;;;;;;;;;;;;;;;;5035874;28;19917;-86
2023/05/23 13:15:09;;;;;;;;;;;;;;;;;;5017527;28;19913;-87
2023/05/23 13:17:35;;;;;;;;;;;;;;;;;;5017644;28;20296;-87
2023/05/23 13:20:00;;;;;;;;;;;;;;;;;;5001052;28;19971;-87
2023/05/23 13:22:30;;;;;;;;;;;;;;;;;;5033797;28;19913;-81
2023/05/23 13:24:55;;;;;;;;;;;;;;;;;;5018428;28;19913;-82
2023/05/23 13:27:21;;;;;;;;;;;;;;;;;;5038500;28;20026;-82
2023/05/23 13:29:46;;;;;;;;;;;;;;;;;;5032017;28;19901;-83
2023/05/23 13:32:12;;;;;;;;;;;;;;;;;;5020453;28;19985;-82
2023/05/23 13:34:40;;;;;;;;;;;;;;;;;;5036963;28;19940;-82
2023/05/23 13:37:06;;;;;;;;;;;;;;;;;;5037830;28;20388;-82
2023/05/23 13:39:31;;;;;;;;;;;;;;;;;;5038899;28;19917;-82
2023/05/23 13:42:00;;;;;;;;;;;;;;;;;;5054164;28;19917;-81
2023/05/23 13:44:25;;;;;;;;;;;;;;;;;;5024386;28;19944;-82
2023/05/23 13:46:50;;;;;;;;;;;;;;;;;;5037356;28;19960;-83
2023/05/23 13:49:16;;;;;;;;;;;;;;;;;;5039516;28;19936;-81
2023/05/23 13:51:43;;;;;;;;;;;;;;;;;;5033329;28;19921;-83
2023/05/23 13:54:08;;;;;;;;;;;;;;;;;;5035014;28;19919;-82
2023/05/23 13:56:35;;;;;;;;;;;;;;;;;;5000906;28;19948;-82
2023/05/23 13:59:00;;;;;;;;;;;;;;;;;;5033575;28;19917;-82
2023/05/23 14:01:26;;;;;;;;;;;;;;;;;;5034027;28;19936;-82
2023/05/23 14:03:52;;;;;;;;;;;;;;;;;;5033037;28;19952;-82
2023/05/23 14:06:20;;;;;;;;;;;;;;;;;;5033984;28;19913;-81
2023/05/23 14:08:46;;;;;;;;;;;;;;;;;;5033599;28;20008;-82
2023/05/23 14:11:11;;;;;;;;;;;;;;;;;;5015211;28;20028;-79
2023/05/23 14:13:37;;;;;;;;;;;;;;;;;;5014617;28;19924;-79
2023/05/23 14:16:03;;;;;;;;;;;;;;;;;;5031504;28;19937;-76
2023/05/23 14:18:28;;;;;;;;;;;;;;;;;;5015322;28;19913;-77
2023/05/23 14:20:54;;;;;;;;;;;;;;;;;;5014845;28;19958;-78
2023/05/23 14:23:19;;;;;;;;;;;;;;;;;;5032199;28;19957;-78
2023/05/23 14:25:45;;;;;;;;;;;;;;;;;;5032471;28;20312;-76
2023/05/23 14:28:10;;;;;;;;;;;;;;;;;;5031888;28;20047;-78
2023/05/23 14:30:35;;;;;;;;;;;;;;;;;;5031897;28;20425;-78
2023/05/23 14:33:04;;;;;;;;;;;;;;;;;;5030137;28;19917;-79
2023/05/23 14:35:30;;;;;;;;;;;;;;;;;;5031913;28;19914;-78
2023/05/23 14:37:55;;;;;;;;;;;;;;;;;;5032139;28;19919;-78
2023/05/23 14:40:20;;;;;;;;;;;;;;;;;;5031916;28;19948;-78
2023/05/23 14:42:46;;;;;;;;;;;;;;;;;;5030653;28;19955;-77
2023/05/23 14:45:12;;;;;;;;;;;;;;;;;;5031282;28;20368;-78
2023/05/23 14:47:37;;;;;;;;;;;;;;;;;;5032197;28;19913;-78
2023/05/23 14:50:03;;;;;;;;;;;;;;;;;;5030715;28;19947;-78
2023/05/23 14:52:29;;;;;;;;;;;;;;;;;;5030556;28;20352;-78
2023/05/23 14:54:54;;;;;;;;;;;;;;;;;;5032002;28;19914;-79
2023/05/23 14:57:20;;;;;;;;;;;;;;;;;;5014273;28;20427;-78
2023/05/23 14:59:46;;;;;;;;;;;;;;;;;;5030721;28;19952;-78
2023/05/23 15:02:11;;;;;;;;;;;;;;;;;;5030893;28;19917;-78
2023/05/23 15:04:37;;;;;;;;;;;;;;;;;;5017166;28;19969;-78
2023/05/23 15:07:03;;;;;;;;;;;;;;;;;;5032393;28;20261;-78
2023/05/23 15:09:31;;;;;;;;;;;;;;;;;;5015666;28;20330;-78
2023/05/23 15:11:57;;;;;;;;;;;;;;;;;;5034536;28;19928;-78
2023/05/23 15:14:27;;;;;;;;;;;;;;;;;;5034332;28;19917;-78
2023/05/23 15:16:53;;;;;;;;;;;;;;;;;;5017918;28;19934;-78
2023/05/23 15:19:18;;;;;;;;;;;;;;;;;;5029683;28;19913;-78
2023/05/23 15:21:44;;;;;;;;;;;;;;;;;;5029451;28;20269;-78
2023/05/23 15:24:09;;;;;;;;;;;;;;;;;;5029411;28;20016;-78
2023/05/23 15:26:35;;;;;;;;;;;;;;;;;;5031595;28;19913;-78
2023/05/23 15:29:00;;;;;;;;;;;;;;;;;;5031611;28;20292;-79
2023/05/23 15:31:28;;;;;;;;;;;;;;;;;;5033072;28;19917;-77
2023/05/23 15:33:54;;;;;;;;;;;;;;;;;;5034556;28;19921;-78
2023/05/23 15:36:45;;;;;;;;;;;;;;;;;;5035213;28;19928;-78
2023/05/23 15:39:11;;;;;;;;;;;;;;;;;;5035719;28;20008;-77
2023/05/23 15:41:36;;;;;;;;;;;;;;;;;;5034218;28;19913;-78
2023/05/23 15:44:02;;;;;;;;;;;;;;;;;;5034514;28;20339;-78
2023/05/23 15:46:27;;;;;;;;;;;;;;;;;;5001583;28;19940;-78
2023/05/23 15:48:55;;;;;;;;;;;;;;;;;;5034332;28;19917;-77
2023/05/23 15:51:23;;;;;;;;;;;;;;;;;;5035438;28;19921;-78
2023/05/23 15:53:48;;;;;;;;;;;;;;;;;;5034156;28;20327;-78
2023/05/23 15:56:14;;;;;;;;;;;;;;;;;;5035657;28;19925;-77
2023/05/23 15:58:40;;;;;;;;;;;;;;;;;;5034884;28;19920;-77
2023/05/23 16:01:05;;;;;;;;;;;;;;;;;;5035861;28;20479;-78
2023/05/23 16:03:30;;;;;;;;;;;;;;;;;;5034427;28;20299;-78
2023/05/23 16:05:56;;;;;;;;;;;;;;;;;;5035739;28;20287;-78
2023/05/23 16:08:21;;;;;;;;;;;;;;;;;;5035141;28;19993;-78
2023/05/23 16:10:47;;;;;;;;;;;;;;;;;;5037822;28;19913;-78
2023/05/23 16:13:12;;;;;;;;;;;;;;;;;;5043526;28;19956;-78
2023/05/23 16:15:38;;;;;;;;;;;;;;;;;;5035321;28;20040;-78
2023/05/23 16:18:03;;;;;;;;;;;;;;;;;;5054984;28;19928;-78
2023/05/23 16:20:29;;;;;;;;;;;;;;;;;;5052506;28;19928;-78
2023/05/23 16:22:54;;;;;;;;;;;;;;;;;;5054401;28;19988;-78
2023/05/23 16:25:20;;;;;;;;;;;;;;;;;;5048627;28;19927;-78
2023/05/23 16:27:45;;;;;;;;;;;;;;;;;;5054785;28;19972;-78
2023/05/23 16:30:11;;;;;;;;;;;;;;;;;;5048130;28;19924;-78
2023/05/23 16:32:37;;;;;;;;;;;;;;;;;;5033371;28;19922;-78
2023/05/23 16:35:02;;;;;;;;;;;;;;;;;;5017438;28;19967;-77
2023/05/23 16:37:30;;;;;;;;;;;;;;;;;;5034907;28;19913;-78
2023/05/23 16:39:58;;;;;;;;;;;;;;;;;;5033885;28;19920;-78
2023/05/23 16:42:27;;;;;;;;;;;;;;;;;;5034489;28;19966;-79